sensor_id;sensor_type;location;lat;lon;timestamp;P1;durP1;ratioP1;P2;durP2;ratioP2
4084;SDS011;2057;50.858;6.572;2022-12-05T00:03:36;36.20;;;19.88;;
4084;SDS011;2057;50.858;6.572;2022-12-05T00:06:02;33.20;;;18.33;;
4084;SDS011;2057;50.858;6.572;2022-12-05T00:08:28;36.35;;;19.98;;
4084;SDS011;2057;50.858;6.572;2022-12-05T00:10:53;39.63;;;20.27;;
4084;SDS011;2057;50.858;6.572;2022-12-05T00:13:18;39.07;;;21.53;;
4084;SDS011;2057;50.858;6.572;2022-12-05T00:15:44;35.47;;;18.57;;
4084;SDS011;2057;50.858;6.572;2022-12-05T00:18:09;43.53;;;20.77;;
4084;SDS011;2057;50.858;6.572;2022-12-05T00:20:34;49.43;;;23.37;;
4084;SDS011;2057;50.858;6.572;2022-12-05T00:23:00;37.00;;;19.47;;
4084;SDS011;2057;50.858;6.572;2022-12-05T00:25:25;46.40;;;22.90;;
4084;SDS011;2057;50.858;6.572;2022-12-05T00:27:51;44.37;;;21.13;;
4084;SDS011;2057;50.858;6.572;2022-12-05T00:30:16;41.57;;;21.23;;
4084;SDS011;2057;50.858;6.572;2022-12-05T00:32:41;43.20;;;22.07;;
4084;SDS011;2057;50.858;6.572;2022-12-05T00:35:07;41.43;;;19.97;;
4084;SDS011;2057;50.858;6.572;2022-12-05T00:37:33;47.33;;;21.80;;
4084;SDS011;2057;50.858;6.572;2022-12-05T00:40:00;45.17;;;24.25;;
4084;SDS011;2057;50.858;6.572;2022-12-05T00:42:25;59.03;;;25.07;;
4084;SDS011;2057;50.858;6.572;2022-12-05T00:44:51;60.37;;;23.00;;
4084;SDS011;2057;50.858;6.572;2022-12-05T00:47:16;48.57;;;23.03;;
4084;SDS011;2057;50.858;6.572;2022-12-05T00:49:41;61.17;;;26.60;;
4084;SDS011;2057;50.858;6.572;2022-12-05T00:52:06;48.87;;;25.30;;
4084;SDS011;2057;50.858;6.572;2022-12-05T00:54:32;54.50;;;23.77;;
4084;SDS011;2057;50.858;6.572;2022-12-05T00:56:57;49.53;;;23.50;;
4084;SDS011;2057;50.858;6.572;2022-12-05T00:59:22;53.00;;;25.73;;
4084;SDS011;2057;50.858;6.572;2022-12-05T01:01:49;46.33;;;23.80;;
4084;SDS011;2057;50.858;6.572;2022-12-05T01:04:17;52.50;;;24.27;;
4084;SDS011;2057;50.858;6.572;2022-12-05T01:06:44;53.67;;;27.48;;
4084;SDS011;2057;50.858;6.572;2022-12-05T01:09:10;55.50;;;25.57;;
4084;SDS011;2057;50.858;6.572;2022-12-05T01:11:37;47.92;;;23.38;;
4084;SDS011;2057;50.858;6.572;2022-12-05T01:14:03;60.73;;;24.80;;
4084;SDS011;2057;50.858;6.572;2022-12-05T01:16:30;44.70;;;22.13;;
4084;SDS011;2057;50.858;6.572;2022-12-05T01:18:58;50.78;;;26.40;;
4084;SDS011;2057;50.858;6.572;2022-12-05T01:21:25;51.67;;;24.08;;
4084;SDS011;2057;50.858;6.572;2022-12-05T01:23:51;52.77;;;25.73;;
4084;SDS011;2057;50.858;6.572;2022-12-05T01:26:18;48.20;;;24.83;;
4084;SDS011;2057;50.858;6.572;2022-12-05T01:28:47;47.20;;;24.60;;
4084;SDS011;2057;50.858;6.572;2022-12-05T01:33:45;57.40;;;26.63;;
4084;SDS011;2057;50.858;6.572;2022-12-05T01:36:10;49.53;;;25.20;;
4084;SDS011;2057;50.858;6.572;2022-12-05T01:38:37;57.72;;;25.23;;
4084;SDS011;2057;50.858;6.572;2022-12-05T01:41:05;51.65;;;25.17;;
4084;SDS011;2057;50.858;6.572;2022-12-05T01:43:31;54.33;;;25.42;;
4084;SDS011;2057;50.858;6.572;2022-12-05T01:45:57;44.90;;;22.47;;
4084;SDS011;2057;50.858;6.572;2022-12-05T01:48:27;48.07;;;23.70;;
4084;SDS011;2057;50.858;6.572;2022-12-05T01:50:56;53.83;;;23.80;;
4084;SDS011;2057;50.858;6.572;2022-12-05T01:53:23;47.08;;;24.13;;
4084;SDS011;2057;50.858;6.572;2022-12-05T01:55:50;47.50;;;24.45;;
4084;SDS011;2057;50.858;6.572;2022-12-05T01:58:17;60.58;;;25.27;;
4084;SDS011;2057;50.858;6.572;2022-12-05T02:00:43;45.17;;;21.65;;
4084;SDS011;2057;50.858;6.572;2022-12-05T02:03:11;54.60;;;24.93;;
4084;SDS011;2057;50.858;6.572;2022-12-05T02:05:42;54.22;;;23.67;;
4084;SDS011;2057;50.858;6.572;2022-12-05T02:08:09;56.60;;;24.92;;
4084;SDS011;2057;50.858;6.572;2022-12-05T02:10:39;48.72;;;24.05;;
4084;SDS011;2057;50.858;6.572;2022-12-05T02:13:11;57.70;;;23.98;;
4084;SDS011;2057;50.858;6.572;2022-12-05T02:30:11;45.95;;;22.55;;
4084;SDS011;2057;50.858;6.572;2022-12-05T02:41:16;47.22;;;23.00;;
4084;SDS011;2057;50.858;6.572;2022-12-05T02:46:23;46.25;;;21.80;;
4084;SDS011;2057;50.858;6.572;2022-12-05T02:49:00;50.97;;;22.65;;
4084;SDS011;2057;50.858;6.572;2022-12-05T02:51:32;46.72;;;21.85;;
4084;SDS011;2057;50.858;6.572;2022-12-05T02:54:04;38.75;;;20.88;;
4084;SDS011;2057;50.858;6.572;2022-12-05T02:56:32;48.63;;;22.20;;
4084;SDS011;2057;50.858;6.572;2022-12-05T02:58:59;37.47;;;20.40;;
4084;SDS011;2057;50.858;6.572;2022-12-05T03:01:26;46.17;;;21.50;;
4084;SDS011;2057;50.858;6.572;2022-12-05T03:03:54;39.63;;;20.95;;
4084;SDS011;2057;50.858;6.572;2022-12-05T03:06:22;46.65;;;21.92;;
4084;SDS011;2057;50.858;6.572;2022-12-05T03:09:03;47.47;;;22.60;;
4084;SDS011;2057;50.858;6.572;2022-12-05T03:11:40;40.97;;;22.45;;
4084;SDS011;2057;50.858;6.572;2022-12-05T03:14:14;47.08;;;21.95;;
4084;SDS011;2057;50.858;6.572;2022-12-05T03:16:53;47.97;;;20.50;;
4084;SDS011;2057;50.858;6.572;2022-12-05T03:19:25;41.05;;;21.90;;
4084;SDS011;2057;50.858;6.572;2022-12-05T03:24:32;45.78;;;22.77;;
4084;SDS011;2057;50.858;6.572;2022-12-05T03:29:57;43.75;;;22.65;;
4084;SDS011;2057;50.858;6.572;2022-12-05T03:33:14;42.75;;;23.35;;
4084;SDS011;2057;50.858;6.572;2022-12-05T03:38:06;46.85;;;23.13;;
4084;SDS011;2057;50.858;6.572;2022-12-05T03:43:19;46.47;;;22.98;;
4084;SDS011;2057;50.858;6.572;2022-12-05T03:45:58;50.88;;;23.35;;
4084;SDS011;2057;50.858;6.572;2022-12-05T03:51:13;43.03;;;20.83;;
4084;SDS011;2057;50.858;6.572;2022-12-05T03:53:43;47.05;;;21.75;;
4084;SDS011;2057;50.858;6.572;2022-12-05T03:56:34;46.17;;;20.45;;
4084;SDS011;2057;50.858;6.572;2022-12-05T03:59:13;45.85;;;22.35;;
4084;SDS011;2057;50.858;6.572;2022-12-05T04:01:46;38.25;;;21.75;;
4084;SDS011;2057;50.858;6.572;2022-12-05T04:04:15;48.58;;;21.88;;
4084;SDS011;2057;50.858;6.572;2022-12-05T04:06:45;54.67;;;21.92;;
4084;SDS011;2057;50.858;6.572;2022-12-05T04:09:19;48.50;;;21.63;;
4084;SDS011;2057;50.858;6.572;2022-12-05T04:11:53;65.85;;;22.75;;
4084;SDS011;2057;50.858;6.572;2022-12-05T04:14:36;43.65;;;20.75;;
4084;SDS011;2057;50.858;6.572;2022-12-05T04:17:08;35.83;;;20.63;;
4084;SDS011;2057;50.858;6.572;2022-12-05T04:19:47;40.30;;;21.45;;
4084;SDS011;2057;50.858;6.572;2022-12-05T04:22:37;39.08;;;20.58;;
4084;SDS011;2057;50.858;6.572;2022-12-05T04:25:04;42.58;;;19.95;;
4084;SDS011;2057;50.858;6.572;2022-12-05T04:28:09;42.58;;;20.88;;
4084;SDS011;2057;50.858;6.572;2022-12-05T04:31:28;43.55;;;22.13;;
4084;SDS011;2057;50.858;6.572;2022-12-05T04:33:58;40.20;;;20.30;;
4084;SDS011;2057;50.858;6.572;2022-12-05T04:36:37;41.83;;;20.83;;
4084;SDS011;2057;50.858;6.572;2022-12-05T04:39:06;44.53;;;19.70;;
4084;SDS011;2057;50.858;6.572;2022-12-05T04:41:49;40.03;;;21.52;;
4084;SDS011;2057;50.858;6.572;2022-12-05T04:44:19;45.17;;;20.20;;
4084;SDS011;2057;50.858;6.572;2022-12-05T04:46:49;40.67;;;21.45;;
4084;SDS011;2057;50.858;6.572;2022-12-05T04:49:21;38.92;;;20.35;;
4084;SDS011;2057;50.858;6.572;2022-12-05T04:51:49;42.58;;;20.98;;
4084;SDS011;2057;50.858;6.572;2022-12-05T04:54:23;50.65;;;20.98;;
4084;SDS011;2057;50.858;6.572;2022-12-05T04:57:30;32.47;;;19.38;;
4084;SDS011;2057;50.858;6.572;2022-12-05T05:00:04;47.13;;;18.75;;
4084;SDS011;2057;50.858;6.572;2022-12-05T05:02:32;41.50;;;18.33;;
4084;SDS011;2057;50.858;6.572;2022-12-05T05:05:02;42.22;;;18.65;;
4084;SDS011;2057;50.858;6.572;2022-12-05T05:07:41;39.80;;;18.67;;
4084;SDS011;2057;50.858;6.572;2022-12-05T05:10:10;33.92;;;18.52;;
4084;SDS011;2057;50.858;6.572;2022-12-05T05:12:39;36.70;;;17.15;;
4084;SDS011;2057;50.858;6.572;2022-12-05T05:15:04;36.50;;;17.57;;
4084;SDS011;2057;50.858;6.572;2022-12-05T05:17:32;36.10;;;17.15;;
4084;SDS011;2057;50.858;6.572;2022-12-05T05:19:58;34.30;;;17.50;;
4084;SDS011;2057;50.858;6.572;2022-12-05T05:22:43;33.55;;;15.75;;
4084;SDS011;2057;50.858;6.572;2022-12-05T05:25:12;29.42;;;15.88;;
4084;SDS011;2057;50.858;6.572;2022-12-05T05:27:37;23.43;;;14.60;;
4084;SDS011;2057;50.858;6.572;2022-12-05T05:30:03;20.90;;;14.37;;
4084;SDS011;2057;50.858;6.572;2022-12-05T05:32:30;22.77;;;12.80;;
4084;SDS011;2057;50.858;6.572;2022-12-05T05:34:59;25.55;;;13.25;;
4084;SDS011;2057;50.858;6.572;2022-12-05T05:37:26;30.83;;;13.88;;
4084;SDS011;2057;50.858;6.572;2022-12-05T05:39:52;22.63;;;13.87;;
4084;SDS011;2057;50.858;6.572;2022-12-05T05:42:17;28.67;;;16.90;;
4084;SDS011;2057;50.858;6.572;2022-12-05T05:44:42;34.37;;;15.67;;
4084;SDS011;2057;50.858;6.572;2022-12-05T05:47:07;31.13;;;16.43;;
4084;SDS011;2057;50.858;6.572;2022-12-05T05:49:33;26.60;;;15.50;;
4084;SDS011;2057;50.858;6.572;2022-12-05T05:51:58;28.80;;;16.77;;
4084;SDS011;2057;50.858;6.572;2022-12-05T05:54:23;33.83;;;15.87;;
4084;SDS011;2057;50.858;6.572;2022-12-05T05:56:52;35.92;;;15.98;;
4084;SDS011;2057;50.858;6.572;2022-12-05T05:59:17;41.70;;;18.13;;
4084;SDS011;2057;50.858;6.572;2022-12-05T06:01:42;39.17;;;16.10;;
4084;SDS011;2057;50.858;6.572;2022-12-05T06:04:08;31.90;;;18.30;;
4084;SDS011;2057;50.858;6.572;2022-12-05T06:06:33;35.20;;;17.43;;
4084;SDS011;2057;50.858;6.572;2022-12-05T06:08:58;34.73;;;17.30;;
4084;SDS011;2057;50.858;6.572;2022-12-05T06:11:26;23.37;;;14.97;;
4084;SDS011;2057;50.858;6.572;2022-12-05T06:13:55;26.45;;;15.13;;
4084;SDS011;2057;50.858;6.572;2022-12-05T06:16:22;31.80;;;16.60;;
4084;SDS011;2057;50.858;6.572;2022-12-05T06:18:48;33.20;;;14.93;;
4084;SDS011;2057;50.858;6.572;2022-12-05T06:21:14;26.03;;;15.50;;
4084;SDS011;2057;50.858;6.572;2022-12-05T06:23:39;27.23;;;15.07;;
4084;SDS011;2057;50.858;6.572;2022-12-05T06:26:08;31.87;;;17.33;;
4084;SDS011;2057;50.858;6.572;2022-12-05T06:28:36;30.10;;;17.08;;
4084;SDS011;2057;50.858;6.572;2022-12-05T06:31:10;29.40;;;16.70;;
4084;SDS011;2057;50.858;6.572;2022-12-05T06:33:39;24.52;;;14.98;;
4084;SDS011;2057;50.858;6.572;2022-12-05T06:36:09;25.20;;;15.63;;
4084;SDS011;2057;50.858;6.572;2022-12-05T06:38:37;30.67;;;16.85;;
4084;SDS011;2057;50.858;6.572;2022-12-05T06:41:09;29.43;;;15.00;;
4084;SDS011;2057;50.858;6.572;2022-12-05T06:43:38;23.05;;;14.55;;
4084;SDS011;2057;50.858;6.572;2022-12-05T06:46:04;21.27;;;13.47;;
4084;SDS011;2057;50.858;6.572;2022-12-05T06:48:35;28.85;;;14.75;;
4084;SDS011;2057;50.858;6.572;2022-12-05T06:51:01;28.60;;;15.40;;
4084;SDS011;2057;50.858;6.572;2022-12-05T06:53:26;28.43;;;15.03;;
4084;SDS011;2057;50.858;6.572;2022-12-05T06:55:56;22.30;;;15.00;;
4084;SDS011;2057;50.858;6.572;2022-12-05T06:58:25;21.15;;;12.52;;
4084;SDS011;2057;50.858;6.572;2022-12-05T07:00:51;28.70;;;15.68;;
4084;SDS011;2057;50.858;6.572;2022-12-05T07:03:35;27.48;;;13.68;;
4084;SDS011;2057;50.858;6.572;2022-12-05T07:06:01;29.27;;;13.80;;
4084;SDS011;2057;50.858;6.572;2022-12-05T07:08:28;40.88;;;15.55;;
4084;SDS011;2057;50.858;6.572;2022-12-05T07:10:54;26.37;;;15.50;;
4084;SDS011;2057;50.858;6.572;2022-12-05T07:13:20;24.53;;;13.87;;
4084;SDS011;2057;50.858;6.572;2022-12-05T07:15:46;28.07;;;15.53;;
4084;SDS011;2057;50.858;6.572;2022-12-05T07:18:12;22.75;;;14.77;;
4084;SDS011;2057;50.858;6.572;2022-12-05T07:20:38;31.33;;;15.05;;
4084;SDS011;2057;50.858;6.572;2022-12-05T07:23:03;27.40;;;15.30;;
4084;SDS011;2057;50.858;6.572;2022-12-05T07:25:28;22.43;;;14.37;;
4084;SDS011;2057;50.858;6.572;2022-12-05T07:27:54;27.67;;;14.67;;
4084;SDS011;2057;50.858;6.572;2022-12-05T07:30:19;28.40;;;15.10;;
4084;SDS011;2057;50.858;6.572;2022-12-05T07:32:44;24.20;;;15.97;;
4084;SDS011;2057;50.858;6.572;2022-12-05T07:35:10;33.10;;;16.50;;
4084;SDS011;2057;50.858;6.572;2022-12-05T07:37:35;29.90;;;17.10;;
4084;SDS011;2057;50.858;6.572;2022-12-05T07:40:01;31.57;;;16.13;;
4084;SDS011;2057;50.858;6.572;2022-12-05T07:42:26;30.23;;;17.00;;
4084;SDS011;2057;50.858;6.572;2022-12-05T07:44:52;25.23;;;16.50;;
4084;SDS011;2057;50.858;6.572;2022-12-05T07:47:17;32.03;;;18.93;;
4084;SDS011;2057;50.858;6.572;2022-12-05T07:49:43;31.97;;;17.47;;
4084;SDS011;2057;50.858;6.572;2022-12-05T07:52:08;41.97;;;21.63;;
4084;SDS011;2057;50.858;6.572;2022-12-05T07:54:34;39.77;;;21.10;;
4084;SDS011;2057;50.858;6.572;2022-12-05T07:56:59;41.53;;;19.27;;
4084;SDS011;2057;50.858;6.572;2022-12-05T07:59:24;42.80;;;21.30;;
4084;SDS011;2057;50.858;6.572;2022-12-05T08:01:50;37.13;;;17.67;;
4084;SDS011;2057;50.858;6.572;2022-12-05T08:04:15;34.20;;;20.93;;
4084;SDS011;2057;50.858;6.572;2022-12-05T08:06:41;40.90;;;19.50;;
4084;SDS011;2057;50.858;6.572;2022-12-05T08:09:07;39.47;;;20.83;;
4084;SDS011;2057;50.858;6.572;2022-12-05T08:11:32;40.63;;;19.93;;
4084;SDS011;2057;50.858;6.572;2022-12-05T08:14:01;39.00;;;21.40;;
4084;SDS011;2057;50.858;6.572;2022-12-05T08:16:28;40.65;;;20.95;;
4084;SDS011;2057;50.858;6.572;2022-12-05T08:18:57;33.00;;;18.42;;
4084;SDS011;2057;50.858;6.572;2022-12-05T08:21:29;36.90;;;19.23;;
4084;SDS011;2057;50.858;6.572;2022-12-05T08:23:54;34.60;;;20.40;;
4084;SDS011;2057;50.858;6.572;2022-12-05T08:26:21;42.57;;;20.47;;
4084;SDS011;2057;50.858;6.572;2022-12-05T08:28:55;34.03;;;18.55;;
4084;SDS011;2057;50.858;6.572;2022-12-05T08:31:22;32.45;;;17.63;;
4084;SDS011;2057;50.858;6.572;2022-12-05T08:33:49;33.80;;;17.77;;
4084;SDS011;2057;50.858;6.572;2022-12-05T08:36:15;27.65;;;15.95;;
4084;SDS011;2057;50.858;6.572;2022-12-05T08:38:44;32.70;;;16.15;;
4084;SDS011;2057;50.858;6.572;2022-12-05T08:41:13;32.17;;;17.00;;
4084;SDS011;2057;50.858;6.572;2022-12-05T08:43:40;30.55;;;16.50;;
4084;SDS011;2057;50.858;6.572;2022-12-05T08:46:07;26.33;;;16.20;;
4084;SDS011;2057;50.858;6.572;2022-12-05T08:48:33;25.17;;;15.75;;
4084;SDS011;2057;50.858;6.572;2022-12-05T08:51:03;27.30;;;15.88;;
4084;SDS011;2057;50.858;6.572;2022-12-05T08:53:30;24.35;;;15.20;;
4084;SDS011;2057;50.858;6.572;2022-12-05T08:55:58;21.57;;;13.67;;
4084;SDS011;2057;50.858;6.572;2022-12-05T08:58:27;24.48;;;15.00;;
4084;SDS011;2057;50.858;6.572;2022-12-05T09:00:53;24.25;;;15.30;;
4084;SDS011;2057;50.858;6.572;2022-12-05T09:03:18;26.87;;;14.23;;
4084;SDS011;2057;50.858;6.572;2022-12-05T09:05:44;33.10;;;16.17;;
4084;SDS011;2057;50.858;6.572;2022-12-05T09:08:09;23.30;;;15.93;;
4084;SDS011;2057;50.858;6.572;2022-12-05T09:10:36;26.50;;;14.80;;
4084;SDS011;2057;50.858;6.572;2022-12-05T09:13:02;27.23;;;15.80;;
4084;SDS011;2057;50.858;6.572;2022-12-05T09:15:27;26.40;;;16.20;;
4084;SDS011;2057;50.858;6.572;2022-12-05T09:17:52;28.67;;;15.77;;
4084;SDS011;2057;50.858;6.572;2022-12-05T09:20:18;25.50;;;15.77;;
4084;SDS011;2057;50.858;6.572;2022-12-05T09:22:43;24.70;;;15.90;;
4084;SDS011;2057;50.858;6.572;2022-12-05T09:25:08;22.63;;;15.27;;
4084;SDS011;2057;50.858;6.572;2022-12-05T09:27:34;31.77;;;17.03;;
4084;SDS011;2057;50.858;6.572;2022-12-05T09:29:59;26.83;;;16.03;;
4084;SDS011;2057;50.858;6.572;2022-12-05T09:32:25;26.87;;;16.80;;
4084;SDS011;2057;50.858;6.572;2022-12-05T09:34:50;28.10;;;15.90;;
4084;SDS011;2057;50.858;6.572;2022-12-05T09:37:16;26.27;;;17.13;;
4084;SDS011;2057;50.858;6.572;2022-12-05T09:39:42;31.02;;;17.13;;
4084;SDS011;2057;50.858;6.572;2022-12-05T09:47:41;27.63;;;15.40;;
4084;SDS011;2057;50.858;6.572;2022-12-05T09:50:21;27.15;;;16.65;;
4084;SDS011;2057;50.858;6.572;2022-12-05T09:55:18;23.17;;;15.30;;
4084;SDS011;2057;50.858;6.572;2022-12-05T09:57:46;28.70;;;16.38;;
4084;SDS011;2057;50.858;6.572;2022-12-05T10:00:16;25.67;;;16.48;;
4084;SDS011;2057;50.858;6.572;2022-12-05T10:02:53;28.40;;;16.87;;
4084;SDS011;2057;50.858;6.572;2022-12-05T10:05:48;27.02;;;16.73;;
4084;SDS011;2057;50.858;6.572;2022-12-05T10:08:31;27.92;;;16.92;;
4084;SDS011;2057;50.858;6.572;2022-12-05T10:16:38;29.25;;;16.98;;
4084;SDS011;2057;50.858;6.572;2022-12-05T10:19:17;28.75;;;18.27;;
4084;SDS011;2057;50.858;6.572;2022-12-05T10:21:51;28.55;;;17.35;;
4084;SDS011;2057;50.858;6.572;2022-12-05T10:27:23;28.42;;;18.25;;
4084;SDS011;2057;50.858;6.572;2022-12-05T10:30:03;33.08;;;19.67;;
4084;SDS011;2057;50.858;6.572;2022-12-05T10:32:31;30.17;;;18.48;;
4084;SDS011;2057;50.858;6.572;2022-12-05T10:35:14;45.63;;;21.10;;
4084;SDS011;2057;50.858;6.572;2022-12-05T10:37:49;40.58;;;25.13;;
4084;SDS011;2057;50.858;6.572;2022-12-05T10:40:16;40.72;;;19.83;;
4084;SDS011;2057;50.858;6.572;2022-12-05T10:42:42;38.88;;;20.05;;
4084;SDS011;2057;50.858;6.572;2022-12-05T10:45:14;35.13;;;21.13;;
4084;SDS011;2057;50.858;6.572;2022-12-05T10:47:44;37.85;;;20.55;;
4084;SDS011;2057;50.858;6.572;2022-12-05T10:50:18;32.90;;;16.05;;
4084;SDS011;2057;50.858;6.572;2022-12-05T10:52:47;49.58;;;24.77;;
4084;SDS011;2057;50.858;6.572;2022-12-05T10:55:13;38.13;;;21.77;;
4084;SDS011;2057;50.858;6.572;2022-12-05T10:57:42;40.97;;;21.25;;
4084;SDS011;2057;50.858;6.572;2022-12-05T11:00:14;43.95;;;20.73;;
4084;SDS011;2057;50.858;6.572;2022-12-05T11:02:41;32.92;;;20.75;;
4084;SDS011;2057;50.858;6.572;2022-12-05T11:05:07;30.73;;;19.30;;
4084;SDS011;2057;50.858;6.572;2022-12-05T11:10:04;31.08;;;18.73;;
4084;SDS011;2057;50.858;6.572;2022-12-05T11:12:44;28.67;;;18.95;;
4084;SDS011;2057;50.858;6.572;2022-12-05T11:17:43;32.97;;;19.02;;
4084;SDS011;2057;50.858;6.572;2022-12-05T11:22:44;39.97;;;21.73;;
4084;SDS011;2057;50.858;6.572;2022-12-05T11:25:24;43.00;;;22.85;;
4084;SDS011;2057;50.858;6.572;2022-12-05T11:27:58;42.38;;;21.80;;
4084;SDS011;2057;50.858;6.572;2022-12-05T11:33:36;47.00;;;24.33;;
4084;SDS011;2057;50.858;6.572;2022-12-05T11:38:44;35.95;;;23.50;;
4084;SDS011;2057;50.858;6.572;2022-12-05T11:43:51;43.90;;;19.30;;
4084;SDS011;2057;50.858;6.572;2022-12-05T12:00:35;31.25;;;18.42;;
4084;SDS011;2057;50.858;6.572;2022-12-05T12:11:27;43.97;;;20.48;;
4084;SDS011;2057;50.858;6.572;2022-12-05T12:14:00;33.10;;;20.20;;
4084;SDS011;2057;50.858;6.572;2022-12-05T12:30:11;40.03;;;19.93;;
4084;SDS011;2057;50.858;6.572;2022-12-05T12:38:35;36.95;;;21.70;;
4084;SDS011;2057;50.858;6.572;2022-12-05T12:41:30;35.63;;;21.30;;
4084;SDS011;2057;50.858;6.572;2022-12-05T12:51:52;40.35;;;22.30;;
4084;SDS011;2057;50.858;6.572;2022-12-05T12:54:32;43.38;;;22.00;;
4084;SDS011;2057;50.858;6.572;2022-12-05T12:59:57;49.67;;;21.42;;
4084;SDS011;2057;50.858;6.572;2022-12-05T13:02:51;39.08;;;21.65;;
4084;SDS011;2057;50.858;6.572;2022-12-05T13:07:57;43.85;;;21.98;;
4084;SDS011;2057;50.858;6.572;2022-12-05T13:10:34;47.95;;;20.45;;
4084;SDS011;2057;50.858;6.572;2022-12-05T13:13:04;58.25;;;21.42;;
4084;SDS011;2057;50.858;6.572;2022-12-05T13:15:36;46.50;;;22.95;;
4084;SDS011;2057;50.858;6.572;2022-12-05T13:18:05;43.97;;;23.42;;
4084;SDS011;2057;50.858;6.572;2022-12-05T13:20:36;39.03;;;20.48;;
4084;SDS011;2057;50.858;6.572;2022-12-05T13:23:03;50.92;;;23.25;;
4084;SDS011;2057;50.858;6.572;2022-12-05T13:25:32;41.58;;;22.80;;
4084;SDS011;2057;50.858;6.572;2022-12-05T13:28:03;40.97;;;22.73;;
4084;SDS011;2057;50.858;6.572;2022-12-05T13:30:33;45.72;;;21.95;;
4084;SDS011;2057;50.858;6.572;2022-12-05T13:33:19;35.63;;;19.67;;
4084;SDS011;2057;50.858;6.572;2022-12-05T13:35:56;37.17;;;22.10;;
4084;SDS011;2057;50.858;6.572;2022-12-05T13:38:47;46.40;;;21.60;;
4084;SDS011;2057;50.858;6.572;2022-12-05T13:41:41;36.72;;;20.38;;
4084;SDS011;2057;50.858;6.572;2022-12-05T13:45:04;35.70;;;19.05;;
4084;SDS011;2057;50.858;6.572;2022-12-05T13:52:32;40.25;;;22.83;;
4084;SDS011;2057;50.858;6.572;2022-12-05T13:57:52;39.00;;;22.63;;
4084;SDS011;2057;50.858;6.572;2022-12-05T14:02:52;42.03;;;20.33;;
4084;SDS011;2057;50.858;6.572;2022-12-05T14:10:14;42.03;;;22.55;;
4084;SDS011;2057;50.858;6.572;2022-12-05T14:21:05;52.35;;;28.73;;
4084;SDS011;2057;50.858;6.572;2022-12-05T14:32:24;52.67;;;26.13;;
4084;SDS011;2057;50.858;6.572;2022-12-05T14:35:08;49.60;;;28.13;;
4084;SDS011;2057;50.858;6.572;2022-12-05T14:37:36;43.10;;;24.77;;
4084;SDS011;2057;50.858;6.572;2022-12-05T14:40:03;44.15;;;24.15;;
4084;SDS011;2057;50.858;6.572;2022-12-05T14:43:03;46.63;;;26.58;;
4084;SDS011;2057;50.858;6.572;2022-12-05T14:50:42;37.75;;;22.73;;
4084;SDS011;2057;50.858;6.572;2022-12-05T14:53:22;38.25;;;23.25;;
4084;SDS011;2057;50.858;6.572;2022-12-05T14:58:42;40.25;;;22.77;;
4084;SDS011;2057;50.858;6.572;2022-12-05T15:01:20;43.58;;;24.83;;
4084;SDS011;2057;50.858;6.572;2022-12-05T15:04:33;38.83;;;24.10;;
4084;SDS011;2057;50.858;6.572;2022-12-05T15:06:49;39.35;;;25.27;;
4084;SDS011;2057;50.858;6.572;2022-12-05T15:09:58;43.40;;;25.88;;
4084;SDS011;2057;50.858;6.572;2022-12-05T15:12:35;39.03;;;24.33;;
4084;SDS011;2057;50.858;6.572;2022-12-05T15:17:39;39.97;;;23.95;;
4084;SDS011;2057;50.858;6.572;2022-12-05T15:31:31;37.40;;;22.60;;
4084;SDS011;2057;50.858;6.572;2022-12-05T15:34:01;34.33;;;21.38;;
4084;SDS011;2057;50.858;6.572;2022-12-05T15:36:36;38.42;;;23.00;;
4084;SDS011;2057;50.858;6.572;2022-12-05T15:39:16;38.28;;;22.40;;
4084;SDS011;2057;50.858;6.572;2022-12-05T15:41:44;38.63;;;21.83;;
4084;SDS011;2057;50.858;6.572;2022-12-05T15:44:13;39.13;;;23.05;;
4084;SDS011;2057;50.858;6.572;2022-12-05T15:46:52;45.00;;;25.38;;
4084;SDS011;2057;50.858;6.572;2022-12-05T15:49:20;40.08;;;24.52;;
4084;SDS011;2057;50.858;6.572;2022-12-05T15:51:48;44.08;;;24.67;;
4084;SDS011;2057;50.858;6.572;2022-12-05T15:54:18;43.53;;;24.85;;
4084;SDS011;2057;50.858;6.572;2022-12-05T15:56:52;41.97;;;25.42;;
4084;SDS011;2057;50.858;6.572;2022-12-05T15:59:24;49.75;;;25.63;;
4084;SDS011;2057;50.858;6.572;2022-12-05T16:02:10;42.80;;;25.50;;
4084;SDS011;2057;50.858;6.572;2022-12-05T16:07:11;42.50;;;28.65;;
4084;SDS011;2057;50.858;6.572;2022-12-05T16:09:39;38.47;;;25.13;;
4084;SDS011;2057;50.858;6.572;2022-12-05T16:14:44;35.58;;;22.27;;
4084;SDS011;2057;50.858;6.572;2022-12-05T16:17:15;38.13;;;22.10;;
4084;SDS011;2057;50.858;6.572;2022-12-05T16:19:40;38.13;;;22.75;;
4084;SDS011;2057;50.858;6.572;2022-12-05T16:24:42;31.20;;;20.52;;
4084;SDS011;2057;50.858;6.572;2022-12-05T16:27:25;31.92;;;20.48;;
4084;SDS011;2057;50.858;6.572;2022-12-05T16:32:37;33.95;;;19.58;;
4084;SDS011;2057;50.858;6.572;2022-12-05T16:35:21;42.17;;;21.17;;
4084;SDS011;2057;50.858;6.572;2022-12-05T16:38:08;39.78;;;21.70;;
4084;SDS011;2057;50.858;6.572;2022-12-05T16:40:38;29.70;;;21.42;;
4084;SDS011;2057;50.858;6.572;2022-12-05T16:43:16;39.13;;;22.73;;
4084;SDS011;2057;50.858;6.572;2022-12-05T16:45:44;35.95;;;24.60;;
4084;SDS011;2057;50.858;6.572;2022-12-05T16:48:26;46.75;;;25.52;;
4084;SDS011;2057;50.858;6.572;2022-12-05T16:53:37;38.35;;;22.08;;
4084;SDS011;2057;50.858;6.572;2022-12-05T16:56:11;41.92;;;24.35;;
4084;SDS011;2057;50.858;6.572;2022-12-05T16:58:40;36.53;;;22.08;;
4084;SDS011;2057;50.858;6.572;2022-12-05T17:01:06;33.10;;;20.50;;
4084;SDS011;2057;50.858;6.572;2022-12-05T17:03:38;34.40;;;21.17;;
4084;SDS011;2057;50.858;6.572;2022-12-05T17:06:03;31.30;;;21.37;;
4084;SDS011;2057;50.858;6.572;2022-12-05T17:08:29;34.40;;;22.83;;
4084;SDS011;2057;50.858;6.572;2022-12-05T17:10:54;30.80;;;21.33;;
4084;SDS011;2057;50.858;6.572;2022-12-05T17:13:20;33.03;;;21.80;;
4084;SDS011;2057;50.858;6.572;2022-12-05T17:15:45;31.10;;;19.20;;
4084;SDS011;2057;50.858;6.572;2022-12-05T17:18:11;36.33;;;25.50;;
4084;SDS011;2057;50.858;6.572;2022-12-05T17:20:39;32.47;;;24.08;;
4084;SDS011;2057;50.858;6.572;2022-12-05T17:23:09;33.55;;;22.23;;
4084;SDS011;2057;50.858;6.572;2022-12-05T17:25:40;38.78;;;23.52;;
4084;SDS011;2057;50.858;6.572;2022-12-05T17:28:08;40.35;;;21.73;;
4084;SDS011;2057;50.858;6.572;2022-12-05T17:30:34;34.73;;;22.10;;
4084;SDS011;2057;50.858;6.572;2022-12-05T17:32:59;38.30;;;24.70;;
4084;SDS011;2057;50.858;6.572;2022-12-05T17:35:26;30.70;;;19.80;;
4084;SDS011;2057;50.858;6.572;2022-12-05T17:37:52;32.28;;;20.90;;
4084;SDS011;2057;50.858;6.572;2022-12-05T17:40:18;36.03;;;21.00;;
4084;SDS011;2057;50.858;6.572;2022-12-05T17:42:46;37.40;;;23.55;;
4084;SDS011;2057;50.858;6.572;2022-12-05T17:45:13;36.20;;;21.55;;
4084;SDS011;2057;50.858;6.572;2022-12-05T17:47:39;35.35;;;21.33;;
4084;SDS011;2057;50.858;6.572;2022-12-05T17:50:12;40.70;;;23.85;;
4084;SDS011;2057;50.858;6.572;2022-12-05T17:52:39;35.83;;;21.63;;
4084;SDS011;2057;50.858;6.572;2022-12-05T17:55:05;31.83;;;20.50;;
4084;SDS011;2057;50.858;6.572;2022-12-05T17:57:33;33.90;;;21.55;;
4084;SDS011;2057;50.858;6.572;2022-12-05T17:59:58;31.83;;;21.05;;
4084;SDS011;2057;50.858;6.572;2022-12-05T18:02:23;31.37;;;20.87;;
4084;SDS011;2057;50.858;6.572;2022-12-05T18:04:49;39.60;;;19.57;;
4084;SDS011;2057;50.858;6.572;2022-12-05T18:07:14;31.53;;;17.87;;
4084;SDS011;2057;50.858;6.572;2022-12-05T18:09:39;28.40;;;18.57;;
4084;SDS011;2057;50.858;6.572;2022-12-05T18:12:05;26.33;;;18.20;;
4084;SDS011;2057;50.858;6.572;2022-12-05T18:14:30;24.30;;;16.90;;
4084;SDS011;2057;50.858;6.572;2022-12-05T18:17:00;25.27;;;17.23;;
4084;SDS011;2057;50.858;6.572;2022-12-05T18:19:26;24.23;;;15.15;;
4084;SDS011;2057;50.858;6.572;2022-12-05T18:21:51;27.97;;;18.00;;
4084;SDS011;2057;50.858;6.572;2022-12-05T18:24:16;21.07;;;15.60;;
4084;SDS011;2057;50.858;6.572;2022-12-05T18:26:42;25.10;;;16.30;;